Kahloke — CZ3845 — position and weather

sailwx.info

Track history (hours):
 
Tides and Currents Weather Stations Pressure Air Temp Water Temp Dewpoint Dewpoint Depression Visibility Wind Speed Wind Dir Waves Ship Positions

Kahloke

Last reported at 2014-Oct-30 11:28 UTC. Time now 2014-Oct-30 13:09 UTC.
Position N 48°59' W 123°41'.

Length 54 m; draft 2 m.

Type: Passenger vessel. MMSI: 316001236.

Date/timePositionNaut miles runAvg speedWind from/ knotsBaromVisibWave heightAir tempDewpointWater temp
2014-Oct-30 11:28N 48°59' W 123°41'0 0.0
2014-Oct-30 10:10N 48°59' W 123°41'0 0.0
2014-Oct-30 08:28N 48°59' W 123°41'0 0.0
2014-Oct-30 07:22N 48°59' W 123°41'1 0.5
2014-Oct-30 05:33N 48°58' W 123°40'2 1.5
2014-Oct-30 04:32N 48°57' W 123°42'1 1.1
2014-Oct-30 03:33N 48°56' W 123°42'2 2.2
2014-Oct-30 02:33N 48°58' W 123°41'2 1.8
2014-Oct-30 01:33N 48°56' W 123°42'1 1.4
2014-Oct-30 00:33N 48°58' W 123°41'1 1.1
2014-Oct-29 23:31N 48°59' W 123°41'4 3.6
2014-Oct-29 22:33N 48°56' W 123°43'4 3.6
2014-Oct-29 21:33N 48°59' W 123°41'2 2.2
2014-Oct-29 20:29N 48°57' W 123°42'2 1.7
2014-Oct-29 19:33N 48°58' W 123°40'1 0.8
2014-Oct-29 18:33N 48°58' W 123°41'2 1.7
2014-Oct-29 17:28N 48°56' W 123°42'2 2.2
2014-Oct-29 16:28N 48°58' W 123°40'3 3.1
2014-Oct-29 15:33N 48°56' W 123°43'3 3.1
2014-Oct-29 14:33N 48°58' W 123°40'0 0.2
2014-Oct-29 13:28N 48°58' W 123°40'1 0.1
2014-Oct-29 06:10N 48°59' W 123°41'1 1.4
2014-Oct-29 05:32N 48°58' W 123°40'2 1.8
2014-Oct-29 04:34N 48°57' W 123°42'1 0.6
2014-Oct-29 03:33N 48°56' W 123°42'2 1.8
2014-Oct-29 02:33N 48°58' W 123°40'3 2.6
2014-Oct-29 01:33N 48°56' W 123°43'3 3.1
2014-Oct-29 00:33N 48°59' W 123°41'0 0.2
2014-Oct-28 23:33N 48°59' W 123°41'3 3.5
2014-Oct-28 22:33N 48°56' W 123°43'4 3.6
2014-Oct-28 21:34N 48°59' W 123°41'3 2.8
2014-Oct-28 20:33N 48°56' W 123°42'1 1.4
2014-Oct-28 19:33N 48°57' W 123°41'1 1.3
2014-Oct-28 18:33N 48°58' W 123°41'3 2.9
2014-Oct-28 17:31N 48°56' W 123°43'4 3.7
2014-Oct-28 16:33N 48°59' W 123°41'3 3.2
2014-Oct-28 15:33N 48°56' W 123°43'3 2.5
2014-Oct-28 14:33N 48°58' W 123°40'1 0.5
2014-Oct-28 13:32N 48°58' W 123°40'1 0.8
2014-Oct-28 12:27N 48°59' W 123°41'0 0.0
2014-Oct-28 10:33N 48°59' W 123°41'0 0.0
2014-Oct-28 09:21N 48°59' W 123°41'0 0.0
2014-Oct-28 08:33N 48°59' W 123°41'0 0.0
2014-Oct-28 07:33N 48°59' W 123°41'0 0.0
2014-Oct-28 06:33N 48°59' W 123°41'1 0.9
2014-Oct-28 05:33N 48°58' W 123°40'2 1.6
2014-Oct-28 04:32N 48°57' W 123°42'1 0.8
2014-Oct-28 03:33N 48°56' W 123°42'2 1.8
2014-Oct-28 02:33N 48°58' W 123°40'2 2.3
2014-Oct-28 01:33N 48°56' W 123°42'3 2.9
2014-Oct-28 00:33N 48°59' W 123°41'0 0.1
2014-Oct-27 23:33N 48°59' W 123°41'3 3.5
2014-Oct-27 22:33N 48°56' W 123°43'4 3.5
2014-Oct-27 21:33N 48°59' W 123°41'1 0.9
2014-Oct-27 20:33N 48°58' W 123°41'3 2.5
2014-Oct-27 19:34N 48°56' W 123°43'1 0.8
2014-Oct-27 18:33N 48°56' W 123°42'0 0.4
2014-Oct-27 17:33N 48°56' W 123°42'2 1.8
2014-Oct-27 16:33N 48°58' W 123°41'2 2.3
2014-Oct-27 15:33N 48°56' W 123°43'2 2.3
2014-Oct-27 14:33N 48°58' W 123°40'1 0.5
2014-Oct-27 13:30N 48°58' W 123°40'1 0.8
2014-Oct-27 12:25N 48°59' W 123°41'0 0.0
2014-Oct-27 11:28N 48°59' W 123°41'0 0.0
2014-Oct-27 10:22N 48°59' W 123°41'0 0.0
2014-Oct-27 09:28N 48°59' W 123°41'0 0.0
2014-Oct-27 08:28N 48°59' W 123°41'0 0.0
2014-Oct-27 07:28N 48°59' W 123°41'0 0.0
2014-Oct-27 06:31N 48°59' W 123°41'2 1.7
2014-Oct-27 05:33N 48°57' W 123°40'1 1.3
2014-Oct-27 04:34N 48°59' W 123°41'2 1.7
2014-Oct-27 03:33N 48°57' W 123°41'1 1.5
2014-Oct-27 02:33N 48°56' W 123°43'3 3.3
2014-Oct-27 01:33N 48°59' W 123°41'0 0.4
2014-Oct-27 00:33N 48°58' W 123°41'3 2.9
2014-Oct-26 23:28N 48°56' W 123°43'4 3.9
2014-Oct-26 22:33N 48°59' W 123°41'3 1.2
2014-Oct-26 20:32N 48°56' W 123°42'1 1.4
2014-Oct-26 19:34N 48°57' W 123°40'2 2.3
2014-Oct-26 18:33N 48°56' W 123°43'3 3.4
2014-Oct-26 17:33N 48°58' W 123°40'0 0.5
2014-Oct-26 16:33N 48°58' W 123°40'3 2.8
2014-Oct-26 15:31N 48°56' W 123°43'3 2.8
2014-Oct-26 14:33N 48°58' W 123°40'1 0.6
2014-Oct-26 13:29N 48°58' W 123°40'1 0.8
2014-Oct-26 12:24N 48°59' W 123°41'0 0.0
2014-Oct-26 11:18N 48°59' W 123°41'0 0.0
2014-Oct-26 10:24N 48°59' W 123°41'0 0.0
2014-Oct-26 09:30N 48°59' W 123°41'0 0.0
2014-Oct-26 08:30N 48°59' W 123°41'0 0.0
2014-Oct-26 07:30N 48°59' W 123°41'0 0.0
2014-Oct-26 06:30N 48°59' W 123°41'1 1.0
2014-Oct-26 05:33N 48°58' W 123°40'2 2.1
2014-Oct-26 04:33N 48°57' W 123°42'0 0.4
2014-Oct-26 03:33N 48°56' W 123°42'2 2.1
2014-Oct-26 02:33N 48°58' W 123°40'3 2.7
2014-Oct-26 01:33N 48°56' W 123°43'3 2.7
2014-Oct-26 00:33N 48°58' W 123°41'0 0.0
2014-Oct-25 23:33N 48°58' W 123°41'3 3.1
2014-Oct-25 22:33N 48°56' W 123°43'4 3.6
2014-Oct-25 21:33N 48°59' W 123°41'3 2.8
2014-Oct-25 20:33N 48°56' W 123°42'2 1.9
2014-Oct-25 19:33N 48°57' W 123°40'3 2.5
2014-Oct-25 18:33N 48°56' W 123°43'3 3.4
2014-Oct-25 17:33N 48°58' W 123°40'0 0.0
2014-Oct-25 16:33N 48°58' W 123°40'3 3.4
2014-Oct-25 15:33N 48°56' W 123°43'3 2.7
2014-Oct-25 14:33N 48°58' W 123°40'1 0.7
2014-Oct-25 13:33N 48°58' W 123°40'1 0.9
2014-Oct-25 12:33N 48°59' W 123°41'0 0.0
2014-Oct-25 11:30N 48°59' W 123°41'0 0.0
2014-Oct-25 10:33N 48°59' W 123°41'0 0.0
2014-Oct-25 09:33N 48°59' W 123°41'0 0.0
2014-Oct-25 08:33N 48°59' W 123°41'0 0.0
2014-Oct-25 07:30N 48°59' W 123°41'0 0.0
2014-Oct-25 06:30N 48°59' W 123°41'1 0.9
2014-Oct-25 05:33N 48°58' W 123°40'1 1.5
2014-Oct-25 04:33N 48°57' W 123°42'2 1.8
2014-Oct-25 03:33N 48°56' W 123°43'3 3.0
2014-Oct-25 02:34N 48°59' W 123°41'2 1.9
2014-Oct-25 01:34N 48°57' W 123°41'0 0.4
2014-Oct-25 00:34N 48°57' W 123°42'2 1.5
2014-Oct-24 23:33N 48°58' W 123°41'2 2.0
2014-Oct-24 22:33N 48°56' W 123°42'0 0.4
2014-Oct-24 21:34N 48°57' W 123°42'2 1.7
2014-Oct-24 20:33N 48°58' W 123°41'2 1.9
2014-Oct-24 19:33N 48°56' W 123°42'1 1.2
2014-Oct-24 18:32N 48°56' W 123°43'3 3.5
2014-Oct-24 17:34N 48°58' W 123°40'1 1.0
2014-Oct-24 16:34N 48°58' W 123°41'3 2.7
2014-Oct-24 15:33N 48°56' W 123°43'3 2.9
2014-Oct-24 14:33N 48°58' W 123°40'0 0.4
2014-Oct-24 13:31N 48°58' W 123°40'1 0.4
2014-Oct-24 11:10N 48°59' W 123°41'0 0.0
2014-Oct-24 10:22N 48°59' W 123°41'0 0.0
2014-Oct-24 09:22N 48°59' W 123°41'0 0.0
2014-Oct-24 08:10N 48°59' W 123°41'0 0.0
2014-Oct-24 07:28N 48°59' W 123°41'1 0.5
2014-Oct-24 05:33N 48°58' W 123°40'1 1.4
2014-Oct-24 04:33N 48°57' W 123°42'1 1.4
2014-Oct-24 03:33N 48°56' W 123°42'2 2.3
2014-Oct-24 02:33N 48°58' W 123°41'2 2.2
2014-Oct-24 01:33N 48°56' W 123°42'3 2.8
2014-Oct-24 00:33N 48°59' W 123°41'0 0.5
2014-Oct-23 23:33N 48°58' W 123°41'3 2.8
2014-Oct-23 22:30N 48°56' W 123°43'3 3.0
2014-Oct-23 21:33N 48°58' W 123°41'1 1.3
2014-Oct-23 20:33N 48°57' W 123°42'1 1.1
2014-Oct-23 19:33N 48°56' W 123°42'2 1.8
2014-Oct-23 18:30N 48°58' W 123°41'1 1.0
2014-Oct-23 17:32N 48°57' W 123°41'2 1.5
2014-Oct-23 16:30N 48°58' W 123°40'2 1.9
2014-Oct-23 15:25N 48°57' W 123°42'2 2.4
2014-Oct-23 14:33N 48°58' W 123°40'0 0.2
2014-Oct-23 13:26N 48°58' W 123°40'1 0.2
2014-Oct-23 09:32N 48°59' W 123°41'0 0.0
2014-Oct-23 07:32N 48°59' W 123°41'1 0.4
2014-Oct-23 05:33N 48°58' W 123°40'2 1.6
2014-Oct-23 04:33N 48°57' W 123°42'1 0.7
2014-Oct-23 03:33N 48°56' W 123°42'2 1.8
2014-Oct-23 02:34N 48°58' W 123°40'3 2.5
2014-Oct-23 01:34N 48°56' W 123°43'3 2.9
2014-Oct-23 00:33N 48°59' W 123°41'0 0.3
2014-Oct-22 23:34N 48°58' W 123°41'3 2.7
2014-Oct-22 22:27N 48°56' W 123°43'4 4.0
2014-Oct-22 21:33N 48°59' W 123°41'3 3.0
2014-Oct-22 20:33N 48°56' W 123°42'1 1.4
2014-Oct-22 19:33N 48°57' W 123°41'1 0.7
2014-Oct-22 18:33N 48°57' W 123°42'1 0.9
2014-Oct-22 17:33N 48°57' W 123°42'2 1.7
2014-Oct-22 16:33N 48°58' W 123°40'3 2.9
2014-Oct-22 15:33N 48°56' W 123°43'3 3.1
2014-Oct-22 14:33N 48°58' W 123°40'0 0.3
2014-Oct-22 13:32N 48°58' W 123°40'1 0.7
2014-Oct-22 12:17N 48°59' W 123°41'0 0.0
2014-Oct-22 10:23N 48°59' W 123°41'0 0.0
2014-Oct-22 08:29N 48°59' W 123°41'0 0.0
2014-Oct-22 07:29N 48°59' W 123°41'0 0.0
2014-Oct-22 06:29N 48°59' W 123°41'1 0.9
2014-Oct-22 05:33N 48°58' W 123°40'1 1.4
2014-Oct-22 04:32N 48°57' W 123°42'1 1.0
2014-Oct-22 03:33N 48°56' W 123°42'2 1.7
2014-Oct-22 02:33N 48°58' W 123°40'2 2.2
2014-Oct-22 01:33N 48°56' W 123°42'1 1.2
2014-Oct-22 00:32N 48°57' W 123°42'2 1.8
2014-Oct-21 23:33N 48°59' W 123°41'4 3.6
2014-Oct-21 22:33N 48°56' W 123°43'4 3.6
2014-Oct-21 21:33N 48°59' W 123°41'3 3.1
2014-Oct-21 20:33N 48°56' W 123°43'2 2.0
2014-Oct-21 19:33N 48°57' W 123°40'1 1.3
2014-Oct-21 18:34N 48°57' W 123°42'0 0.5
2014-Oct-21 17:33N 48°57' W 123°41'2 1.7
2014-Oct-21 16:32N 48°58' W 123°40'3 3.2
2014-Oct-21 15:33N 48°56' W 123°43'3 3.1
2014-Oct-21 14:33N 48°58' W 123°40'0 0.2
2014-Oct-21 13:30N 48°58' W 123°40'1 0.8
2014-Oct-21 12:21N 48°59' W 123°41'0 0.0
2014-Oct-21 11:15N 48°59' W 123°41'0 0.0
2014-Oct-21 10:33N 48°59' W 123°41'0 0.0
2014-Oct-21 08:33N 48°59' W 123°41'0 0.0
2014-Oct-21 07:33N 48°59' W 123°41'0 0.0
2014-Oct-21 06:33N 48°59' W 123°41'1 0.9
2014-Oct-21 05:32N 48°58' W 123°40'2 1.6
2014-Oct-21 04:33N 48°57' W 123°42'1 0.9
2014-Oct-21 03:33N 48°56' W 123°42'2 2.1
2014-Oct-21 02:33N 48°58' W 123°40'3 2.9
2014-Oct-21 01:33N 48°56' W 123°43'2 2.4
2014-Oct-21 00:32N 48°58' W 123°42'1 1.2
2014-Oct-20 23:33N 48°59' W 123°41'4 3.6
2014-Oct-20 22:33N 48°56' W 123°43'4 3.6
2014-Oct-20 21:33N 48°59' W 123°41'0 0.3
2014-Oct-20 20:33N 48°59' W 123°41'3 2.3
2014-Oct-20 19:06N 48°56' W 123°43'2 3.5
2014-Oct-20 18:32N 48°57' W 123°42'1 0.6
2014-Oct-20 17:33N 48°57' W 123°41'2 1.8
2014-Oct-20 16:33N 48°58' W 123°40'3 3.2
2014-Oct-20 15:33N 48°56' W 123°43'2 2.3
2014-Oct-20 14:33N 48°57' W 123°40'1 0.9
2014-Oct-20 13:33N 48°58' W 123°40'1 0.7
2014-Oct-20 12:09N 48°59' W 123°41'  
Track history (hours):
 
Tides and Currents Weather Stations Pressure Air Temp Water Temp Dewpoint Dewpoint Depression Visibility Wind Speed Wind Dir Waves Ship Positions

Kahloke

Last reported at 2014-Oct-30 11:28 UTC. Time now 2014-Oct-30 13:09 UTC.
Position N 48°59' W 123°41'.

Length 54 m; draft 2 m.

Type: Passenger vessel. MMSI: 316001236.

Date/timePositionNaut miles runAvg speedWind from/ knotsBaromVisibWave heightAir tempDewpointWater temp
2014-Oct-30 11:28N 48°59' W 123°41'0 0.0
2014-Oct-30 10:10N 48°59' W 123°41'0 0.0
2014-Oct-30 08:28N 48°59' W 123°41'0 0.0
2014-Oct-30 07:22N 48°59' W 123°41'1 0.5
2014-Oct-30 05:33N 48°58' W 123°40'2 1.5
2014-Oct-30 04:32N 48°57' W 123°42'1 1.1
2014-Oct-30 03:33N 48°56' W 123°42'2 2.2
2014-Oct-30 02:33N 48°58' W 123°41'2 1.8
2014-Oct-30 01:33N 48°56' W 123°42'1 1.4
2014-Oct-30 00:33N 48°58' W 123°41'1 1.1
2014-Oct-29 23:31N 48°59' W 123°41'4 3.6
2014-Oct-29 22:33N 48°56' W 123°43'4 3.6
2014-Oct-29 21:33N 48°59' W 123°41'2 2.2
2014-Oct-29 20:29N 48°57' W 123°42'2 1.7
2014-Oct-29 19:33N 48°58' W 123°40'1 0.8
2014-Oct-29 18:33N 48°58' W 123°41'2 1.7
2014-Oct-29 17:28N 48°56' W 123°42'2 2.2
2014-Oct-29 16:28N 48°58' W 123°40'3 3.1
2014-Oct-29 15:33N 48°56' W 123°43'3 3.1
2014-Oct-29 14:33N 48°58' W 123°40'0 0.2
2014-Oct-29 13:28N 48°58' W 123°40'1 0.1
2014-Oct-29 06:10N 48°59' W 123°41'1 1.4
2014-Oct-29 05:32N 48°58' W 123°40'2 1.8
2014-Oct-29 04:34N 48°57' W 123°42'1 0.6
2014-Oct-29 03:33N 48°56' W 123°42'2 1.8
2014-Oct-29 02:33N 48°58' W 123°40'3 2.6
2014-Oct-29 01:33N 48°56' W 123°43'3 3.1
2014-Oct-29 00:33N 48°59' W 123°41'0 0.2
2014-Oct-28 23:33N 48°59' W 123°41'3 3.5
2014-Oct-28 22:33N 48°56' W 123°43'4 3.6
2014-Oct-28 21:34N 48°59' W 123°41'3 2.8
2014-Oct-28 20:33N 48°56' W 123°42'1 1.4
2014-Oct-28 19:33N 48°57' W 123°41'1 1.3
2014-Oct-28 18:33N 48°58' W 123°41'3 2.9
2014-Oct-28 17:31N 48°56' W 123°43'4 3.7
2014-Oct-28 16:33N 48°59' W 123°41'3 3.2
2014-Oct-28 15:33N 48°56' W 123°43'3 2.5
2014-Oct-28 14:33N 48°58' W 123°40'1 0.5
2014-Oct-28 13:32N 48°58' W 123°40'1 0.8
2014-Oct-28 12:27N 48°59' W 123°41'0 0.0
2014-Oct-28 10:33N 48°59' W 123°41'0 0.0
2014-Oct-28 09:21N 48°59' W 123°41'0 0.0
2014-Oct-28 08:33N 48°59' W 123°41'0 0.0
2014-Oct-28 07:33N 48°59' W 123°41'0 0.0
2014-Oct-28 06:33N 48°59' W 123°41'1 0.9
2014-Oct-28 05:33N 48°58' W 123°40'2 1.6
2014-Oct-28 04:32N 48°57' W 123°42'1 0.8
2014-Oct-28 03:33N 48°56' W 123°42'2 1.8
2014-Oct-28 02:33N 48°58' W 123°40'2 2.3
2014-Oct-28 01:33N 48°56' W 123°42'3 2.9
2014-Oct-28 00:33N 48°59' W 123°41'0 0.1
2014-Oct-27 23:33N 48°59' W 123°41'3 3.5
2014-Oct-27 22:33N 48°56' W 123°43'4 3.5
2014-Oct-27 21:33N 48°59' W 123°41'1 0.9
2014-Oct-27 20:33N 48°58' W 123°41'3 2.5
2014-Oct-27 19:34N 48°56' W 123°43'1 0.8
2014-Oct-27 18:33N 48°56' W 123°42'0 0.4
2014-Oct-27 17:33N 48°56' W 123°42'2 1.8
2014-Oct-27 16:33N 48°58' W 123°41'2 2.3
2014-Oct-27 15:33N 48°56' W 123°43'2 2.3
2014-Oct-27 14:33N 48°58' W 123°40'1 0.5
2014-Oct-27 13:30N 48°58' W 123°40'1 0.8
2014-Oct-27 12:25N 48°59' W 123°41'0 0.0
2014-Oct-27 11:28N 48°59' W 123°41'0 0.0
2014-Oct-27 10:22N 48°59' W 123°41'0 0.0
2014-Oct-27 09:28N 48°59' W 123°41'0 0.0
2014-Oct-27 08:28N 48°59' W 123°41'0 0.0
2014-Oct-27 07:28N 48°59' W 123°41'0 0.0
2014-Oct-27 06:31N 48°59' W 123°41'2 1.7
2014-Oct-27 05:33N 48°57' W 123°40'1 1.3
2014-Oct-27 04:34N 48°59' W 123°41'2 1.7
2014-Oct-27 03:33N 48°57' W 123°41'1 1.5
2014-Oct-27 02:33N 48°56' W 123°43'3 3.3
2014-Oct-27 01:33N 48°59' W 123°41'0 0.4
2014-Oct-27 00:33N 48°58' W 123°41'3 2.9
2014-Oct-26 23:28N 48°56' W 123°43'4 3.9
2014-Oct-26 22:33N 48°59' W 123°41'3 1.2
2014-Oct-26 20:32N 48°56' W 123°42'1 1.4
2014-Oct-26 19:34N 48°57' W 123°40'2 2.3
2014-Oct-26 18:33N 48°56' W 123°43'3 3.4
2014-Oct-26 17:33N 48°58' W 123°40'0 0.5
2014-Oct-26 16:33N 48°58' W 123°40'3 2.8
2014-Oct-26 15:31N 48°56' W 123°43'3 2.8
2014-Oct-26 14:33N 48°58' W 123°40'1 0.6
2014-Oct-26 13:29N 48°58' W 123°40'1 0.8
2014-Oct-26 12:24N 48°59' W 123°41'0 0.0
2014-Oct-26 11:18N 48°59' W 123°41'0 0.0
2014-Oct-26 10:24N 48°59' W 123°41'0 0.0
2014-Oct-26 09:30N 48°59' W 123°41'0 0.0
2014-Oct-26 08:30N 48°59' W 123°41'0 0.0
2014-Oct-26 07:30N 48°59' W 123°41'0 0.0
2014-Oct-26 06:30N 48°59' W 123°41'1 1.0
2014-Oct-26 05:33N 48°58' W 123°40'2 2.1
2014-Oct-26 04:33N 48°57' W 123°42'0 0.4
2014-Oct-26 03:33N 48°56' W 123°42'2 2.1
2014-Oct-26 02:33N 48°58' W 123°40'3 2.7
2014-Oct-26 01:33N 48°56' W 123°43'3 2.7
2014-Oct-26 00:33N 48°58' W 123°41'0 0.0
2014-Oct-25 23:33N 48°58' W 123°41'3 3.1
2014-Oct-25 22:33N 48°56' W 123°43'4 3.6
2014-Oct-25 21:33N 48°59' W 123°41'3 2.8
2014-Oct-25 20:33N 48°56' W 123°42'2 1.9
2014-Oct-25 19:33N 48°57' W 123°40'3 2.5
2014-Oct-25 18:33N 48°56' W 123°43'3 3.4
2014-Oct-25 17:33N 48°58' W 123°40'0 0.0
2014-Oct-25 16:33N 48°58' W 123°40'3 3.4
2014-Oct-25 15:33N 48°56' W 123°43'3 2.7
2014-Oct-25 14:33N 48°58' W 123°40'1 0.7
2014-Oct-25 13:33N 48°58' W 123°40'1 0.9
2014-Oct-25 12:33N 48°59' W 123°41'0 0.0
2014-Oct-25 11:30N 48°59' W 123°41'0 0.0
2014-Oct-25 10:33N 48°59' W 123°41'0 0.0
2014-Oct-25 09:33N 48°59' W 123°41'0 0.0
2014-Oct-25 08:33N 48°59' W 123°41'0 0.0
2014-Oct-25 07:30N 48°59' W 123°41'0 0.0
2014-Oct-25 06:30N 48°59' W 123°41'1 0.9
2014-Oct-25 05:33N 48°58' W 123°40'1 1.5
2014-Oct-25 04:33N 48°57' W 123°42'2 1.8
2014-Oct-25 03:33N 48°56' W 123°43'3 3.0
2014-Oct-25 02:34N 48°59' W 123°41'2 1.9
2014-Oct-25 01:34N 48°57' W 123°41'0 0.4
2014-Oct-25 00:34N 48°57' W 123°42'2 1.5
2014-Oct-24 23:33N 48°58' W 123°41'2 2.0
2014-Oct-24 22:33N 48°56' W 123°42'0 0.4
2014-Oct-24 21:34N 48°57' W 123°42'2 1.7
2014-Oct-24 20:33N 48°58' W 123°41'2 1.9
2014-Oct-24 19:33N 48°56' W 123°42'1 1.2
2014-Oct-24 18:32N 48°56' W 123°43'3 3.5
2014-Oct-24 17:34N 48°58' W 123°40'1 1.0
2014-Oct-24 16:34N 48°58' W 123°41'3 2.7
2014-Oct-24 15:33N 48°56' W 123°43'3 2.9
2014-Oct-24 14:33N 48°58' W 123°40'0 0.4
2014-Oct-24 13:31N 48°58' W 123°40'1 0.4
2014-Oct-24 11:10N 48°59' W 123°41'0 0.0
2014-Oct-24 10:22N 48°59' W 123°41'0 0.0
2014-Oct-24 09:22N 48°59' W 123°41'0 0.0
2014-Oct-24 08:10N 48°59' W 123°41'0 0.0
2014-Oct-24 07:28N 48°59' W 123°41'1 0.5
2014-Oct-24 05:33N 48°58' W 123°40'1 1.4
2014-Oct-24 04:33N 48°57' W 123°42'1 1.4
2014-Oct-24 03:33N 48°56' W 123°42'2 2.3
2014-Oct-24 02:33N 48°58' W 123°41'2 2.2
2014-Oct-24 01:33N 48°56' W 123°42'3 2.8
2014-Oct-24 00:33N 48°59' W 123°41'0 0.5
2014-Oct-23 23:33N 48°58' W 123°41'3 2.8
2014-Oct-23 22:30N 48°56' W 123°43'3 3.0
2014-Oct-23 21:33N 48°58' W 123°41'1 1.3
2014-Oct-23 20:33N 48°57' W 123°42'1 1.1
2014-Oct-23 19:33N 48°56' W 123°42'2 1.8
2014-Oct-23 18:30N 48°58' W 123°41'1 1.0
2014-Oct-23 17:32N 48°57' W 123°41'2 1.5
2014-Oct-23 16:30N 48°58' W 123°40'2 1.9
2014-Oct-23 15:25N 48°57' W 123°42'2 2.4
2014-Oct-23 14:33N 48°58' W 123°40'0 0.2
2014-Oct-23 13:26N 48°58' W 123°40'1 0.2
2014-Oct-23 09:32N 48°59' W 123°41'0 0.0
2014-Oct-23 07:32N 48°59' W 123°41'1 0.4
2014-Oct-23 05:33N 48°58' W 123°40'2 1.6
2014-Oct-23 04:33N 48°57' W 123°42'1 0.7
2014-Oct-23 03:33N 48°56' W 123°42'2 1.8
2014-Oct-23 02:34N 48°58' W 123°40'3 2.5
2014-Oct-23 01:34N 48°56' W 123°43'3 2.9
2014-Oct-23 00:33N 48°59' W 123°41'0 0.3
2014-Oct-22 23:34N 48°58' W 123°41'3 2.7
2014-Oct-22 22:27N 48°56' W 123°43'4 4.0
2014-Oct-22 21:33N 48°59' W 123°41'3 3.0
2014-Oct-22 20:33N 48°56' W 123°42'1 1.4
2014-Oct-22 19:33N 48°57' W 123°41'1 0.7
2014-Oct-22 18:33N 48°57' W 123°42'1 0.9
2014-Oct-22 17:33N 48°57' W 123°42'2 1.7
2014-Oct-22 16:33N 48°58' W 123°40'3 2.9
2014-Oct-22 15:33N 48°56' W 123°43'3 3.1
2014-Oct-22 14:33N 48°58' W 123°40'0 0.3
2014-Oct-22 13:32N 48°58' W 123°40'1 0.7
2014-Oct-22 12:17N 48°59' W 123°41'0 0.0
2014-Oct-22 10:23N 48°59' W 123°41'0 0.0
2014-Oct-22 08:29N 48°59' W 123°41'0 0.0
2014-Oct-22 07:29N 48°59' W 123°41'0 0.0
2014-Oct-22 06:29N 48°59' W 123°41'1 0.9
2014-Oct-22 05:33N 48°58' W 123°40'1 1.4
2014-Oct-22 04:32N 48°57' W 123°42'1 1.0
2014-Oct-22 03:33N 48°56' W 123°42'2 1.7
2014-Oct-22 02:33N 48°58' W 123°40'2 2.2
2014-Oct-22 01:33N 48°56' W 123°42'1 1.2
2014-Oct-22 00:32N 48°57' W 123°42'2 1.8
2014-Oct-21 23:33N 48°59' W 123°41'4 3.6
2014-Oct-21 22:33N 48°56' W 123°43'4 3.6
2014-Oct-21 21:33N 48°59' W 123°41'3 3.1
2014-Oct-21 20:33N 48°56' W 123°43'2 2.0
2014-Oct-21 19:33N 48°57' W 123°40'1 1.3
2014-Oct-21 18:34N 48°57' W 123°42'0 0.5
2014-Oct-21 17:33N 48°57' W 123°41'2 1.7
2014-Oct-21 16:32N 48°58' W 123°40'3 3.2
2014-Oct-21 15:33N 48°56' W 123°43'3 3.1
2014-Oct-21 14:33N 48°58' W 123°40'0 0.2
2014-Oct-21 13:30N 48°58' W 123°40'1 0.8
2014-Oct-21 12:21N 48°59' W 123°41'0 0.0
2014-Oct-21 11:15N 48°59' W 123°41'0 0.0
2014-Oct-21 10:33N 48°59' W 123°41'0 0.0
2014-Oct-21 08:33N 48°59' W 123°41'0 0.0
2014-Oct-21 07:33N 48°59' W 123°41'0 0.0
2014-Oct-21 06:33N 48°59' W 123°41'1 0.9
2014-Oct-21 05:32N 48°58' W 123°40'2 1.6
2014-Oct-21 04:33N 48°57' W 123°42'1 0.9
2014-Oct-21 03:33N 48°56' W 123°42'2 2.1
2014-Oct-21 02:33N 48°58' W 123°40'3 2.9
2014-Oct-21 01:33N 48°56' W 123°43'2 2.4
2014-Oct-21 00:32N 48°58' W 123°42'1 1.2
2014-Oct-20 23:33N 48°59' W 123°41'4 3.6
2014-Oct-20 22:33N 48°56' W 123°43'4 3.6
2014-Oct-20 21:33N 48°59' W 123°41'0 0.3
2014-Oct-20 20:33N 48°59' W 123°41'3 2.3
2014-Oct-20 19:06N 48°56' W 123°43'2 3.5
2014-Oct-20 18:32N 48°57' W 123°42'1 0.6
2014-Oct-20 17:33N 48°57' W 123°41'2 1.8
2014-Oct-20 16:33N 48°58' W 123°40'3 3.2
2014-Oct-20 15:33N 48°56' W 123°43'2 2.3
2014-Oct-20 14:33N 48°57' W 123°40'1 0.9
2014-Oct-20 13:33N 48°58' W 123°40'1 0.7
2014-Oct-20 12:09N 48°59' W 123°41'  

Dump ship's entire track history